METAR
LICR 222150Z AUTO 24006KT 200V280 9999 BKN110 17/12 Q1017
TAF